Terminal Aerodrome Forecast
Issued by NWS San Angelo, TX

Home | Current Version | Previous Version | Text Only | Print | Product List | Glossary On
Versions: 1 2 3 4 5 6 7 8 9 10 11 12 13 14 15 16 17 18 19 20 21 22 23 24 25
752
FTUS44 KSJT 281815 RRA
TAFSJT
TAF
KSJT 281815Z 2818/2918 16015G26KT P6SM SCT070
     FM290200 14010G16KT P6SM SCT050
     FM290600 17009G16KT P6SM BKN015
     FM291200 19009KT P6SM OVC015
     FM291400 23013KT P6SM OVC250
     FM291600 25016G22KT P6SM SKC=

USA.gov is the U.S. government's official web portal to all federal, state and local government web resources and services.